createdAt,value
2022-10-26T00:01:11.455Z,90.40
2022-10-26T00:03:38.582Z,90.40
2022-10-26T00:06:10.250Z,90.50
2022-10-26T00:08:37.221Z,90.60
2022-10-26T00:11:04.192Z,90.70
2022-10-26T00:13:31.025Z,90.80
2022-10-26T00:18:29.897Z,90.70
2022-10-26T00:20:56.728Z,90.60
2022-10-26T00:23:23.472Z,90.70
2022-10-26T00:25:56.883Z,90.60
2022-10-26T00:28:23.739Z,90.50
2022-10-26T00:30:50.700Z,90.50
2022-10-26T00:33:17.610Z,90.50
2022-10-26T00:35:46.988Z,90.70
2022-10-26T00:38:13.904Z,90.80
2022-10-26T00:40:40.776Z,90.90
2022-10-26T00:43:34.002Z,90.90
2022-10-26T00:46:00.752Z,90.90
2022-10-26T00:48:29.263Z,90.80
2022-10-26T00:50:56.752Z,90.70
2022-10-26T00:53:23.500Z,90.70
2022-10-26T00:55:51.094Z,90.70
2022-10-26T00:58:17.810Z,91.10
2022-10-26T01:00:44.613Z,90.70
2022-10-26T01:03:11.507Z,90.80
2022-10-26T01:05:40.418Z,91.10
2022-10-26T01:08:07.957Z,91.10
2022-10-26T01:10:35.149Z,91.10
2022-10-26T01:13:01.907Z,91.10
2022-10-26T01:15:37.798Z,91.10
2022-10-26T01:18:28.528Z,91.00
2022-10-26T01:21:14.672Z,90.90
2022-10-26T01:24:17.942Z,90.90
2022-10-26T01:29:40.379Z,90.90
2022-10-26T01:32:33.828Z,90.90
2022-10-26T01:35:08.118Z,91.10
2022-10-26T01:37:37.822Z,91.20
2022-10-26T01:40:09.782Z,91.30
2022-10-26T01:42:37.025Z,91.40
2022-10-26T01:45:08.159Z,91.20
2022-10-26T01:47:35.084Z,91.10
2022-10-26T01:50:02.358Z,91.10
2022-10-26T01:52:29.144Z,91.10
2022-10-26T01:55:07.857Z,91.10
2022-10-26T01:57:35.451Z,91.20
2022-10-26T02:00:12.214Z,91.10
2022-10-26T02:02:44.775Z,91.10
2022-10-26T02:05:33.446Z,91.30
2022-10-26T02:08:23.757Z,91.40
2022-10-26T02:11:11.790Z,91.40
2022-10-26T02:14:10.489Z,91.30
2022-10-26T02:16:56.522Z,91.10
2022-10-26T02:19:51.775Z,91.10
2022-10-26T02:22:37.375Z,91.10
2022-10-26T02:25:09.344Z,91.40
2022-10-26T02:27:38.714Z,91.10
2022-10-26T02:30:06.052Z,91.10
2022-10-26T02:32:35.034Z,91.10
2022-10-26T02:35:02.825Z,91.90
2022-10-26T02:37:29.557Z,91.50
2022-10-26T02:39:56.282Z,91.60
2022-10-26T02:42:22.997Z,91.70
2022-10-26T02:44:50.713Z,91.50
2022-10-26T02:47:18.203Z,91.40
2022-10-26T02:49:44.968Z,91.40
2022-10-26T02:52:18.793Z,91.30
2022-10-26T02:55:01.548Z,91.20
2022-10-26T02:57:35.169Z,91.30
2022-10-26T03:00:01.947Z,91.30
2022-10-26T03:02:30.307Z,91.30
2022-10-26T03:04:57.102Z,91.60
2022-10-26T03:07:24.321Z,91.70
2022-10-26T03:09:51.135Z,91.80
2022-10-26T03:12:18.137Z,92.20
2022-10-26T03:14:45.066Z,92.10
2022-10-26T03:17:11.781Z,91.60
2022-10-26T03:19:38.513Z,91.50
2022-10-26T03:22:05.233Z,91.40
2022-10-26T03:24:31.947Z,91.40
2022-10-26T03:27:01.217Z,91.30
2022-10-26T03:29:29.091Z,91.30
2022-10-26T03:31:55.849Z,91.20
2022-10-26T03:34:22.563Z,91.40
2022-10-26T03:36:49.340Z,91.50
2022-10-26T03:39:16.057Z,91.60
2022-10-26T03:41:42.853Z,91.60
2022-10-26T03:44:09.654Z,91.70
2022-10-26T03:46:36.379Z,91.60
2022-10-26T03:49:03.146Z,91.60
2022-10-26T03:51:29.858Z,91.50
2022-10-26T03:53:56.571Z,91.40
2022-10-26T03:56:23.342Z,91.40
2022-10-26T03:58:50.052Z,91.40
2022-10-26T04:01:16.828Z,91.40
2022-10-26T04:03:43.572Z,91.30
2022-10-26T04:06:10.323Z,91.60
2022-10-26T04:08:37.099Z,91.60
2022-10-26T04:11:04.796Z,91.70
2022-10-26T04:13:31.812Z,91.70
2022-10-26T04:15:58.604Z,91.70
2022-10-26T04:18:25.393Z,91.70
2022-10-26T04:20:52.108Z,91.60
2022-10-26T04:23:19.201Z,91.50
2022-10-26T04:25:46.070Z,91.40
2022-10-26T04:28:13.348Z,91.40
2022-10-26T04:30:42.393Z,91.40
2022-10-26T04:33:09.298Z,91.40
2022-10-26T04:35:37.075Z,91.30
2022-10-26T04:38:05.817Z,91.60
2022-10-26T04:40:33.123Z,91.60
2022-10-26T04:43:00.053Z,91.70
2022-10-26T04:45:28.683Z,91.70
2022-10-26T04:48:05.505Z,91.60
2022-10-26T04:50:32.228Z,91.60
2022-10-26T04:52:58.921Z,91.70
2022-10-26T04:55:25.993Z,92.10
2022-10-26T04:57:55.895Z,92.00
2022-10-26T05:00:25.453Z,92.60
2022-10-26T05:02:52.684Z,92.90
2022-10-26T05:05:19.755Z,92.90
2022-10-26T05:07:54.900Z,93.00
2022-10-26T05:10:21.903Z,93.00
2022-10-26T05:12:52.683Z,93.00
2022-10-26T05:15:19.729Z,93.10
2022-10-26T05:17:47.259Z,93.10
2022-10-26T05:20:14.643Z,93.00
2022-10-26T05:22:43.840Z,92.90
2022-10-26T05:25:11.932Z,93.10
2022-10-26T05:27:38.925Z,93.00
2022-10-26T05:32:38.232Z,93.00
2022-10-26T05:35:05.635Z,93.00
2022-10-26T05:37:32.618Z,93.20
2022-10-26T05:39:59.579Z,93.00
2022-10-26T05:42:26.551Z,93.10
2022-10-26T05:44:53.494Z,93.00
2022-10-26T05:47:20.405Z,93.00
2022-10-26T05:49:47.995Z,93.10
2022-10-26T05:52:15.485Z,93.00
2022-10-26T05:54:43.239Z,92.90
2022-10-26T05:57:15.019Z,93.00
2022-10-26T05:59:42.797Z,93.00
2022-10-26T06:02:14.454Z,93.00
2022-10-26T06:04:47.965Z,93.10
2022-10-26T06:07:20.060Z,93.20
2022-10-26T06:09:47.278Z,93.20
2022-10-26T06:12:18.373Z,93.20
2022-10-26T06:14:46.873Z,93.20
2022-10-26T06:17:30.614Z,93.20
2022-10-26T06:20:21.224Z,93.20
2022-10-26T06:22:59.380Z,93.20
2022-10-26T06:25:49.407Z,93.10
2022-10-26T06:28:22.241Z,93.10
2022-10-26T06:30:49.026Z,93.10
2022-10-26T06:33:28.993Z,93.10
2022-10-26T06:36:11.453Z,93.00
2022-10-26T06:38:38.245Z,93.00
2022-10-26T06:41:04.993Z,93.00
2022-10-26T06:43:32.724Z,92.90
2022-10-26T06:45:59.459Z,92.90
2022-10-26T06:48:28.281Z,92.90
2022-10-26T06:50:55.242Z,93.10
2022-10-26T06:53:53.871Z,92.90
2022-10-26T06:56:20.891Z,92.90
2022-10-26T06:58:48.048Z,92.90
2022-10-26T07:01:15.709Z,92.90
2022-10-26T07:03:42.997Z,92.90
2022-10-26T07:06:10.261Z,92.80
2022-10-26T07:08:37.297Z,92.80
2022-10-26T07:11:04.925Z,92.80
2022-10-26T07:13:31.884Z,92.80
2022-10-26T07:15:58.914Z,92.90
2022-10-26T07:18:25.673Z,93.00
2022-10-26T07:20:52.421Z,93.40
2022-10-26T07:23:19.246Z,93.50
2022-10-26T07:25:48.108Z,92.60
2022-10-26T07:28:15.072Z,88.90
2022-10-26T07:30:42.896Z,93.20
2022-10-26T07:33:13.935Z,92.00
2022-10-26T07:35:40.781Z,91.80
2022-10-26T07:38:07.541Z,91.50
2022-10-26T07:40:34.302Z,91.40
2022-10-26T07:43:01.223Z,91.60
2022-10-26T07:45:28.428Z,91.50
2022-10-26T07:47:55.404Z,91.60
2022-10-26T07:50:22.292Z,91.50
2022-10-26T07:52:49.371Z,91.50
2022-10-26T07:55:17.138Z,91.40
2022-10-26T07:57:43.855Z,91.30
2022-10-26T08:00:11.448Z,91.20
2022-10-26T08:02:38.189Z,91.10
2022-10-26T08:05:05.391Z,91.00
2022-10-26T08:07:32.152Z,91.00
2022-10-26T08:09:58.916Z,90.90
2022-10-26T08:12:25.621Z,90.90
2022-10-26T08:14:52.797Z,90.90
2022-10-26T08:17:21.633Z,90.90
2022-10-26T08:19:49.892Z,90.90
2022-10-26T08:22:18.626Z,91.00
2022-10-26T08:24:48.448Z,90.90
2022-10-26T08:27:17.434Z,90.90
2022-10-26T08:29:44.186Z,90.90
2022-10-26T08:32:10.906Z,90.80
2022-10-26T08:34:37.698Z,90.80
2022-10-26T08:37:04.554Z,90.70
2022-10-26T08:39:31.252Z,90.70
2022-10-26T08:42:14.017Z,90.60
2022-10-26T08:44:52.867Z,90.60
2022-10-26T08:47:20.406Z,90.60
2022-10-26T08:49:52.428Z,90.60
2022-10-26T08:52:22.462Z,90.90
2022-10-26T08:54:58.034Z,90.60
2022-10-26T08:57:28.681Z,90.60
2022-10-26T09:00:04.691Z,90.60
2022-10-26T09:02:31.450Z,90.60
2022-10-26T09:05:01.359Z,90.70
2022-10-26T09:07:51.385Z,91.60
2022-10-26T09:10:19.166Z,92.10
2022-10-26T09:13:02.271Z,92.00
2022-10-26T09:15:48.206Z,91.60
2022-10-26T09:18:28.045Z,91.40
2022-10-26T09:21:13.299Z,91.10
2022-10-26T09:23:48.989Z,91.10
2022-10-26T09:26:21.458Z,90.70
2022-10-26T09:28:48.740Z,90.40
2022-10-26T09:31:16.982Z,88.00
2022-10-26T09:33:43.739Z,88.90
2022-10-26T09:36:15.963Z,88.60
2022-10-26T09:38:44.873Z,87.10
2022-10-26T09:41:20.490Z,84.70
2022-10-26T09:44:10.568Z,83.70
2022-10-26T09:46:57.996Z,82.10
2022-10-26T09:49:31.321Z,80.60
2022-10-26T09:51:58.528Z,80.20
2022-10-26T09:54:25.566Z,80.40
2022-10-26T09:56:54.410Z,80.60
2022-10-26T09:59:23.485Z,80.90
2022-10-26T10:01:50.492Z,81.00
2022-10-26T10:04:28.257Z,79.70
2022-10-26T10:07:00.968Z,79.90
2022-10-26T10:09:27.713Z,80.10
2022-10-26T10:11:56.526Z,76.70
2022-10-26T10:14:28.064Z,77.10
2022-10-26T10:16:56.689Z,77.70
2022-10-26T10:19:27.337Z,77.60
2022-10-26T10:21:58.871Z,77.30
2022-10-26T10:24:35.184Z,77.40
2022-10-26T10:27:16.642Z,75.80
2022-10-26T10:29:48.553Z,75.70
2022-10-26T10:32:17.414Z,75.60
2022-10-26T10:34:44.283Z,75.60
2022-10-26T10:37:29.461Z,76.70
2022-10-26T10:40:00.607Z,77.20
2022-10-26T10:42:30.956Z,75.80
2022-10-26T10:44:57.780Z,76.00
2022-10-26T10:47:31.731Z,75.20
2022-10-26T10:50:02.509Z,75.00
2022-10-26T10:52:31.104Z,73.80
2022-10-26T10:55:21.071Z,72.70
2022-10-26T10:58:00.404Z,73.00
2022-10-26T11:00:27.212Z,73.70
2022-10-26T11:02:59.712Z,73.80
2022-10-26T11:05:50.762Z,71.90
2022-10-26T11:08:40.226Z,73.30
2022-10-26T11:11:16.500Z,73.50
2022-10-26T11:13:53.534Z,72.80
2022-10-26T11:16:42.522Z,72.10
2022-10-26T11:19:30.923Z,72.10
2022-10-26T11:21:57.678Z,71.30
2022-10-26T11:24:34.462Z,71.40
2022-10-26T11:27:39.851Z,71.60
2022-10-26T11:30:13.557Z,69.90
2022-10-26T11:32:57.540Z,71.00
2022-10-26T11:35:34.451Z,70.90
2022-10-26T11:38:23.938Z,69.90
2022-10-26T11:41:24.594Z,69.80
2022-10-26T11:44:03.217Z,69.50
2022-10-26T11:46:37.004Z,70.70
2022-10-26T11:49:19.326Z,70.60
2022-10-26T11:52:14.655Z,71.20
2022-10-26T11:54:48.591Z,71.60
2022-10-26T11:57:16.117Z,71.40
2022-10-26T11:59:49.655Z,70.20
2022-10-26T12:02:21.507Z,70.00
2022-10-26T12:05:45.497Z,69.20
2022-10-26T12:08:42.710Z,70.20
2022-10-26T12:11:39.382Z,70.40
2022-10-26T12:14:24.982Z,69.00
2022-10-26T12:17:06.918Z,69.80
2022-10-26T12:19:50.867Z,69.70
2022-10-26T12:22:19.537Z,67.90
2022-10-26T12:24:47.739Z,67.90
2022-10-26T12:27:31.492Z,67.90
2022-10-26T12:30:31.072Z,67.30
2022-10-26T12:33:03.897Z,69.20
2022-10-26T12:35:37.307Z,70.00
2022-10-26T12:38:29.009Z,71.40
2022-10-26T12:41:08.626Z,70.90
2022-10-26T12:43:39.629Z,72.50
2022-10-26T12:46:15.384Z,72.50
2022-10-26T12:48:49.753Z,72.00
2022-10-26T12:51:24.698Z,73.00
2022-10-26T12:54:03.253Z,73.00
2022-10-26T12:56:37.801Z,73.40
2022-10-26T12:59:27.427Z,74.10
2022-10-26T13:02:02.983Z,73.60
2022-10-26T13:04:45.838Z,74.20
2022-10-26T13:07:24.882Z,74.40
2022-10-26T13:09:59.348Z,74.90
2022-10-26T13:12:26.606Z,76.20
2022-10-26T13:15:02.209Z,78.40
2022-10-26T13:17:31.550Z,80.00
2022-10-26T13:20:03.202Z,79.20
2022-10-26T13:22:30.245Z,77.90
2022-10-26T13:25:04.765Z,77.00
2022-10-26T13:27:35.202Z,77.10
2022-10-26T13:30:04.883Z,77.10
2022-10-26T13:32:39.295Z,77.10
2022-10-26T13:35:06.268Z,77.30
2022-10-26T13:37:33.811Z,77.30
2022-10-26T13:40:00.661Z,77.30
2022-10-26T13:42:30.137Z,77.50
2022-10-26T13:45:03.806Z,77.40
2022-10-26T13:47:44.097Z,77.50
2022-10-26T13:50:14.905Z,77.70
2022-10-26T13:52:43.483Z,78.00
2022-10-26T13:55:13.650Z,78.00
2022-10-26T13:57:43.207Z,78.40
2022-10-26T14:00:20.507Z,78.30
2022-10-26T14:02:49.162Z,78.00
2022-10-26T14:05:17.350Z,79.30
2022-10-26T14:07:45.995Z,78.90
2022-10-26T14:10:29.049Z,78.80
2022-10-26T14:12:56.343Z,78.80
2022-10-26T14:15:28.121Z,79.10
2022-10-26T14:17:55.171Z,78.70
2022-10-26T14:20:23.134Z,79.20
2022-10-26T14:22:50.897Z,79.50
2022-10-26T14:25:30.967Z,79.30
2022-10-26T14:28:41.699Z,79.10
2022-10-26T14:31:30.793Z,79.20
2022-10-26T14:33:58.746Z,81.50
2022-10-26T14:36:45.298Z,80.70
2022-10-26T14:39:33.485Z,80.50
2022-10-26T14:42:01.346Z,81.60
2022-10-26T14:44:28.112Z,80.70
2022-10-26T14:46:54.875Z,82.40
2022-10-26T14:49:26.753Z,85.10
2022-10-26T14:52:04.305Z,84.30
2022-10-26T14:54:32.243Z,84.20
2022-10-26T14:57:02.606Z,83.90
2022-10-26T14:59:31.236Z,82.30
2022-10-26T15:02:20.871Z,82.70
2022-10-26T15:05:04.602Z,82.60
2022-10-26T15:07:38.224Z,82.50
2022-10-26T15:10:05.754Z,82.60
2022-10-26T15:12:33.164Z,81.80
2022-10-26T15:17:56.265Z,81.30
2022-10-26T15:20:27.018Z,80.50
2022-10-26T15:22:57.541Z,79.00
2022-10-26T15:25:28.221Z,77.60
2022-10-26T15:27:56.905Z,75.60
2022-10-26T15:30:27.517Z,70.10
2022-10-26T15:32:55.025Z,67.10
2022-10-26T15:35:26.991Z,68.10
2022-10-26T15:37:55.467Z,69.60
2022-10-26T15:40:22.931Z,68.00
2022-10-26T15:42:52.167Z,66.60
2022-10-26T15:45:26.750Z,65.90
2022-10-26T15:47:54.761Z,65.60
2022-10-26T15:50:26.360Z,66.50
2022-10-26T15:53:01.598Z,66.80
2022-10-26T15:55:29.187Z,67.50
2022-10-26T15:57:56.017Z,68.40
2022-10-26T16:00:22.835Z,69.00
2022-10-26T16:02:49.672Z,69.50
2022-10-26T16:05:16.994Z,70.30
2022-10-26T16:07:45.282Z,70.60
2022-10-26T16:10:18.925Z,71.40
2022-10-26T16:12:46.447Z,72.00
2022-10-26T16:15:24.439Z,72.40
2022-10-26T16:17:52.984Z,72.60
2022-10-26T16:20:27.710Z,72.80
2022-10-26T16:22:54.744Z,72.80
2022-10-26T16:25:24.392Z,72.60
2022-10-26T16:27:52.656Z,72.60
2022-10-26T16:30:22.364Z,72.70
2022-10-26T16:32:51.695Z,72.80
2022-10-26T16:35:18.685Z,73.10
2022-10-26T16:37:45.965Z,73.20
2022-10-26T16:40:12.830Z,73.30
2022-10-26T16:42:43.853Z,73.70
2022-10-26T16:45:14.511Z,73.40
2022-10-26T16:47:41.462Z,73.60
2022-10-26T16:50:09.299Z,73.60
2022-10-26T16:52:36.209Z,73.60
2022-10-26T16:55:03.409Z,73.90
2022-10-26T16:57:30.168Z,73.80
2022-10-26T16:59:57.759Z,73.60
2022-10-26T17:02:24.833Z,73.60
2022-10-26T17:04:52.526Z,73.90
2022-10-26T17:07:19.483Z,74.30
2022-10-26T17:09:46.277Z,74.40
2022-10-26T17:12:13.239Z,74.50
2022-10-26T17:14:40.371Z,74.20
2022-10-26T17:17:07.131Z,74.40
2022-10-26T17:19:34.299Z,74.90
2022-10-26T17:22:03.772Z,75.40
2022-10-26T17:24:33.141Z,78.30
2022-10-26T17:26:59.945Z,77.10
2022-10-26T17:29:26.793Z,75.50
2022-10-26T17:31:54.506Z,75.40
2022-10-26T17:34:21.659Z,75.90
2022-10-26T17:36:48.413Z,76.10
2022-10-26T17:39:16.266Z,76.70
2022-10-26T17:41:43.050Z,77.70
2022-10-26T17:44:09.803Z,77.40
2022-10-26T17:46:36.583Z,78.00
2022-10-26T17:49:03.602Z,79.30
2022-10-26T17:51:30.902Z,79.70
2022-10-26T17:53:59.333Z,80.20
2022-10-26T17:56:31.555Z,80.80
2022-10-26T17:59:00.362Z,81.60
2022-10-26T18:01:28.406Z,82.20
2022-10-26T18:03:56.767Z,82.30
2022-10-26T18:06:23.791Z,82.50
2022-10-26T18:08:50.610Z,84.30
2022-10-26T18:11:23.857Z,85.80
2022-10-26T18:13:57.927Z,85.40
2022-10-26T18:16:26.282Z,85.60
2022-10-26T18:19:01.064Z,84.40
2022-10-26T18:21:30.023Z,84.40
2022-10-26T18:23:59.152Z,84.80
2022-10-26T18:26:28.816Z,84.60
2022-10-26T18:28:56.891Z,84.20
2022-10-26T18:31:24.852Z,83.70
2022-10-26T18:34:01.076Z,83.60
2022-10-26T18:36:29.759Z,83.70
2022-10-26T18:38:58.146Z,83.70
2022-10-26T18:41:25.838Z,84.80
2022-10-26T18:43:54.356Z,85.40
2022-10-26T18:46:25.439Z,85.70
2022-10-26T18:48:52.572Z,85.60
2022-10-26T18:51:21.279Z,85.50
2022-10-26T18:53:48.183Z,88.00
2022-10-26T18:56:19.444Z,89.60
2022-10-26T18:58:50.107Z,90.30
2022-10-26T19:01:24.104Z,91.60
2022-10-26T19:04:00.473Z,91.00
2022-10-26T19:06:31.848Z,91.90
2022-10-26T19:09:00.214Z,90.90
2022-10-26T19:11:28.747Z,90.60
2022-10-26T19:13:56.051Z,91.20
2022-10-26T19:16:44.746Z,91.10
2022-10-26T19:19:12.424Z,90.80
2022-10-26T19:21:39.266Z,91.40
2022-10-26T19:24:07.786Z,90.60
2022-10-26T19:26:37.729Z,90.10
2022-10-26T19:29:08.304Z,89.60
2022-10-26T19:31:37.989Z,89.10
2022-10-26T19:34:04.946Z,88.60
2022-10-26T19:36:32.185Z,88.00
2022-10-26T19:38:59.404Z,88.10
2022-10-26T19:41:28.165Z,88.10
2022-10-26T19:43:55.206Z,87.80
2022-10-26T19:46:26.698Z,87.30
2022-10-26T19:48:54.788Z,88.00
2022-10-26T19:51:22.117Z,86.70
2022-10-26T19:53:49.267Z,86.60
2022-10-26T19:56:16.088Z,87.40
2022-10-26T19:58:43.617Z,88.80
2022-10-26T20:01:11.258Z,88.30
2022-10-26T20:03:38.104Z,88.10
2022-10-26T20:06:12.751Z,87.80
2022-10-26T20:08:40.665Z,87.60
2022-10-26T20:11:10.214Z,87.00
2022-10-26T20:13:40.294Z,86.70
2022-10-26T20:16:07.590Z,86.70
2022-10-26T20:18:34.567Z,86.60
2022-10-26T20:21:02.009Z,86.20
2022-10-26T20:23:30.135Z,85.90
2022-10-26T20:26:01.839Z,86.20
2022-10-26T20:28:30.508Z,86.30
2022-10-26T20:31:00.077Z,86.10
2022-10-26T20:33:27.531Z,85.90
2022-10-26T20:35:58.704Z,85.50
2022-10-26T20:38:26.122Z,85.70
2022-10-26T20:40:57.557Z,85.70
2022-10-26T20:43:25.474Z,85.60
2022-10-26T20:45:52.636Z,85.40
2022-10-26T20:48:19.816Z,85.70
2022-10-26T20:50:53.624Z,85.60
2022-10-26T20:53:28.894Z,85.70
2022-10-26T20:56:00.778Z,86.10
2022-10-26T20:59:05.852Z,86.10
2022-10-26T21:01:34.090Z,86.10
2022-10-26T21:04:03.157Z,86.00
2022-10-26T21:06:30.311Z,85.90
2022-10-26T21:08:57.921Z,86.00
2022-10-26T21:11:25.306Z,86.00
2022-10-26T21:13:53.169Z,86.00
2022-10-26T21:16:19.927Z,86.00
2022-10-26T21:18:46.727Z,86.00
2022-10-26T21:21:13.497Z,86.20
2022-10-26T21:23:40.731Z,86.20
2022-10-26T21:26:07.790Z,86.50
2022-10-26T21:28:39.092Z,86.30
2022-10-26T21:31:06.544Z,86.50
2022-10-26T21:33:34.961Z,86.50
2022-10-26T21:36:02.538Z,86.60
2022-10-26T21:38:30.055Z,86.60
2022-10-26T21:41:12.134Z,86.60
2022-10-26T21:43:39.804Z,86.90
2022-10-26T21:46:06.940Z,87.10
2022-10-26T21:48:35.754Z,87.00
2022-10-26T21:51:04.133Z,87.10
2022-10-26T21:53:31.051Z,87.10
2022-10-26T21:56:05.980Z,87.20
2022-10-26T21:58:32.752Z,87.10
2022-10-26T22:01:11.411Z,87.20
2022-10-26T22:03:38.387Z,87.20
2022-10-26T22:06:06.987Z,87.30
2022-10-26T22:08:33.859Z,87.40
2022-10-26T22:11:15.175Z,87.50
2022-10-26T22:13:43.229Z,87.40
2022-10-26T22:16:15.008Z,87.70
2022-10-26T22:18:43.302Z,87.80
2022-10-26T22:21:10.215Z,87.90
2022-10-26T22:23:39.003Z,87.80
2022-10-26T22:26:08.258Z,87.80
2022-10-26T22:28:40.026Z,87.70
2022-10-26T22:31:10.843Z,87.80
2022-10-26T22:33:38.520Z,87.80
2022-10-26T22:36:15.270Z,87.80
2022-10-26T22:38:42.189Z,87.80
2022-10-26T22:41:09.269Z,87.90
2022-10-26T22:43:37.448Z,88.00
2022-10-26T22:46:23.630Z,88.10
2022-10-26T22:48:54.693Z,88.40
2022-10-26T22:51:23.424Z,88.40
2022-10-26T22:53:53.858Z,88.40
2022-10-26T22:56:20.764Z,88.30
2022-10-26T22:58:47.540Z,88.20
2022-10-26T23:01:18.407Z,88.10
2022-10-26T23:03:45.235Z,88.10
2022-10-26T23:06:14.487Z,88.10
2022-10-26T23:08:41.438Z,89.00
2022-10-26T23:11:10.719Z,88.30
2022-10-26T23:13:37.696Z,88.30
2022-10-26T23:16:23.083Z,88.30
2022-10-26T23:18:49.883Z,88.70
2022-10-26T23:21:16.950Z,88.80
2022-10-26T23:23:43.760Z,88.90
2022-10-26T23:26:13.628Z,88.90
2022-10-26T23:28:41.875Z,88.70
2022-10-26T23:31:09.290Z,88.70
2022-10-26T23:33:36.263Z,88.60
2022-10-26T23:36:03.190Z,88.40
2022-10-26T23:38:29.961Z,88.40
2022-10-26T23:40:58.674Z,88.40
2022-10-26T23:43:26.105Z,88.60
2022-10-26T23:45:53.242Z,88.60
2022-10-26T23:48:20.010Z,88.50
2022-10-26T23:50:47.702Z,88.70
2022-10-26T23:53:14.781Z,89.20
2022-10-26T23:55:43.593Z,89.30
2022-10-26T23:58:11.205Z,89.20
